Time;durP1;ratioP1;P1;durP2;ratioP2;P2;SDS_P1;SDS_P2;PMS_P1;PMS_P2;Temp;Humidity;BMP_temperature;BMP_pressure;BME280_temperature;BME280_humidity;BME280_pressure;Samples;Min_cycle;Max_cycle;Signal;HPM_P1;HPM_P2
2022/08/17 00:02:03;;;;;;;;;;;23.30;69.40;;;;;;6071225;23;1931;-66
2022/08/17 00:04:28;;;;;;;;;;;23.30;69.40;;;;;;6097179;23;1026;-66
2022/08/17 00:06:54;;;;;;;;;;;23.30;69.40;;;;;;6096486;23;777;-66
2022/08/17 00:09:19;;;;;;;;;;;23.30;69.50;;;;;;6096407;23;1290;-67
2022/08/17 00:11:45;;;;;;;;;;;23.30;69.40;;;;;;6096435;23;773;-67
2022/08/17 00:14:11;;;;;;;;;;;23.30;69.40;;;;;;6095563;23;775;-67
2022/08/17 00:16:38;;;;;;;;;;;23.30;69.40;;;;;;6094401;23;845;-67
2022/08/17 00:19:05;;;;;;;;;;;23.30;69.50;;;;;;6093871;23;1294;-67
2022/08/17 00:21:30;;;;;;;;;;;23.30;69.40;;;;;;6095397;23;1937;-67
2022/08/17 00:23:56;;;;;;;;;;;23.30;69.50;;;;;;6093427;23;888;-66
2022/08/17 00:26:21;;;;;;;;;;;23.30;69.40;;;;;;6068833;23;1350;-66
2022/08/17 00:28:47;;;;;;;;;;;23.30;69.40;;;;;;6095395;23;825;-67
2022/08/17 00:31:12;;;;;;;;;;;23.30;69.40;;;;;;6095119;23;1207;-67
2022/08/17 00:33:39;;;;;;;;;;;23.30;69.50;;;;;;6094059;23;911;-67
2022/08/17 00:36:05;;;;;;;;;;;23.30;69.50;;;;;;6093195;23;828;-68
2022/08/17 00:38:30;;;;;;;;;;;23.30;69.50;;;;;;6093669;23;835;-68
2022/08/17 00:40:57;;;;;;;;;;;23.30;69.50;;;;;;6092889;23;1893;-66
2022/08/17 00:43:28;;;;;;;;;;;23.30;69.50;;;;;;6094736;23;789;-67
2022/08/17 00:45:54;;;;;;;;;;;23.30;69.50;;;;;;6094865;23;1031;-66
2022/08/17 00:48:19;;;;;;;;;;;23.30;69.50;;;;;;6095299;23;825;-67
2022/08/17 00:50:49;;;;;;;;;;;23.30;69.50;;;;;;6093390;23;1299;-66
2022/08/17 00:53:14;;;;;;;;;;;23.30;69.50;;;;;;6094288;23;835;-66
2022/08/17 00:55:39;;;;;;;;;;;23.30;69.50;;;;;;6094273;23;773;-66
2022/08/17 00:58:05;;;;;;;;;;;23.30;69.50;;;;;;6090458;23;695;-66
2022/08/17 01:00:38;;;;;;;;;;;23.30;69.50;;;;;;6085412;23;1901;-66
2022/08/17 01:03:05;;;;;;;;;;;23.30;69.50;;;;;;6094418;23;781;-67
2022/08/17 01:05:31;;;;;;;;;;;23.20;69.40;;;;;;6094569;23;908;-67
2022/08/17 01:07:57;;;;;;;;;;;23.30;69.50;;;;;;6094805;23;828;-67
2022/08/17 01:10:25;;;;;;;;;;;23.30;69.50;;;;;;6094420;23;1200;-67
2022/08/17 01:12:51;;;;;;;;;;;23.30;69.50;;;;;;6093305;23;1055;-67
2022/08/17 01:15:16;;;;;;;;;;;23.30;69.50;;;;;;6094388;23;1027;-67
2022/08/17 01:17:42;;;;;;;;;;;23.30;69.50;;;;;;6094127;23;745;-67
2022/08/17 01:20:08;;;;;;;;;;;23.30;69.50;;;;;;6096258;23;1187;-67
2022/08/17 01:22:33;;;;;;;;;;;23.30;69.50;;;;;;6094481;23;1939;-67
2022/08/17 01:25:00;;;;;;;;;;;23.30;69.50;;;;;;6070612;23;1252;-66
2022/08/17 01:27:26;;;;;;;;;;;23.30;69.50;;;;;;6092782;23;1046;-67
2022/08/17 01:29:52;;;;;;;;;;;23.30;69.50;;;;;;6096004;23;1211;-67
2022/08/17 01:32:18;;;;;;;;;;;23.30;69.50;;;;;;6070656;23;1265;-66
2022/08/17 01:34:44;;;;;;;;;;;23.30;69.50;;;;;;6094688;23;832;-66
2022/08/17 01:37:10;;;;;;;;;;;23.30;69.50;;;;;;6094035;23;725;-67
2022/08/17 01:39:36;;;;;;;;;;;23.30;69.50;;;;;;6070663;23;1196;-67
2022/08/17 01:42:04;;;;;;;;;;;23.30;69.60;;;;;;6094703;23;1928;-67
2022/08/17 01:44:30;;;;;;;;;;;23.30;69.60;;;;;;6094913;23;852;-67
2022/08/17 01:46:55;;;;;;;;;;;23.30;69.50;;;;;;6093701;23;1054;-66
2022/08/17 01:49:21;;;;;;;;;;;23.30;69.50;;;;;;6096053;23;1195;-67
2022/08/17 01:51:46;;;;;;;;;;;23.20;69.50;;;;;;6094743;23;813;-67
2022/08/17 01:54:12;;;;;;;;;;;23.30;69.60;;;;;;6094771;23;798;-67
2022/08/17 01:56:39;;;;;;;;;;;23.20;69.50;;;;;;6095614;23;769;-66
2022/08/17 01:59:05;;;;;;;;;;;23.30;69.60;;;;;;6094333;23;1307;-66
2022/08/17 02:01:31;;;;;;;;;;;23.30;69.60;;;;;;6095876;23;1901;-66
2022/08/17 02:03:56;;;;;;;;;;;23.20;69.50;;;;;;6096294;23;816;-66
2022/08/17 02:06:21;;;;;;;;;;;23.20;69.50;;;;;;6093993;23;924;-66
2022/08/17 02:08:47;;;;;;;;;;;23.20;69.50;;;;;;6071284;23;884;-67
2022/08/17 02:11:16;;;;;;;;;;;23.30;69.60;;;;;;6095808;23;1179;-67
2022/08/17 02:13:45;;;;;;;;;;;23.30;69.60;;;;;;6096854;23;761;-66
2022/08/17 02:16:11;;;;;;;;;;;23.20;69.50;;;;;;6095421;23;1011;-66
2022/08/17 02:18:36;;;;;;;;;;;23.20;69.50;;;;;;6094311;23;911;-67
2022/08/17 02:21:02;;;;;;;;;;;23.20;69.50;;;;;;6095834;23;1953;-67
2022/08/17 02:23:28;;;;;;;;;;;23.20;69.50;;;;;;6094862;23;1170;-67
2022/08/17 02:25:53;;;;;;;;;;;23.20;69.60;;;;;;6093792;23;1358;-67
2022/08/17 02:28:19;;;;;;;;;;;23.20;69.60;;;;;;6070558;23;1300;-67
2022/08/17 02:30:45;;;;;;;;;;;23.20;69.60;;;;;;6096513;23;1187;-67
2022/08/17 02:33:10;;;;;;;;;;;23.20;69.60;;;;;;6096069;23;864;-67
2022/08/17 02:35:36;;;;;;;;;;;23.20;69.60;;;;;;6096857;23;915;-67
2022/08/17 02:38:02;;;;;;;;;;;23.20;69.60;;;;;;6096853;23;858;-67
2022/08/17 02:40:27;;;;;;;;;;;23.30;69.60;;;;;;6097850;23;1935;-66
2022/08/17 02:42:53;;;;;;;;;;;23.20;69.60;;;;;;6098007;23;884;-66
2022/08/17 02:45:19;;;;;;;;;;;23.20;69.60;;;;;;6097938;23;885;-67
2022/08/17 02:47:45;;;;;;;;;;;23.20;69.60;;;;;;6071853;23;1313;-67
2022/08/17 02:50:11;;;;;;;;;;;23.20;69.60;;;;;;6072021;23;1266;-66
2022/08/17 02:52:37;;;;;;;;;;;23.30;69.70;;;;;;6096584;23;900;-67
2022/08/17 02:55:04;;;;;;;;;;;23.20;69.80;;;;;;6096497;23;840;-68
2022/08/17 02:57:29;;;;;;;;;;;23.20;69.60;;;;;;6095538;23;794;-67
2022/08/17 02:59:54;;;;;;;;;;;23.20;69.60;;;;;;6097960;23;1262;-67
2022/08/17 03:02:20;;;;;;;;;;;23.20;69.70;;;;;;6098102;23;1937;-67
2022/08/17 03:04:45;;;;;;;;;;;23.20;69.70;;;;;;6071767;23;1189;-67
2022/08/17 03:07:11;;;;;;;;;;;23.20;69.60;;;;;;6097395;23;818;-67
2022/08/17 03:09:36;;;;;;;;;;;23.20;69.60;;;;;;6071862;23;1286;-67
2022/08/17 03:12:03;;;;;;;;;;;23.30;69.70;;;;;;6097477;23;877;-67
2022/08/17 03:14:31;;;;;;;;;;;23.20;69.60;;;;;;6097805;23;931;-67
2022/08/17 03:16:56;;;;;;;;;;;23.20;69.70;;;;;;6097276;23;852;-66
2022/08/17 03:19:22;;;;;;;;;;;23.20;69.60;;;;;;6097283;23;1249;-66
2022/08/17 03:21:47;;;;;;;;;;;23.20;69.70;;;;;;6097332;23;1893;-66
2022/08/17 03:24:13;;;;;;;;;;;23.20;69.60;;;;;;6098140;23;1031;-66
2022/08/17 03:26:39;;;;;;;;;;;23.20;69.70;;;;;;6096751;23;761;-66
2022/08/17 03:29:04;;;;;;;;;;;23.20;69.60;;;;;;6097490;23;1206;-67
2022/08/17 03:31:30;;;;;;;;;;;23.20;69.70;;;;;;6097627;23;829;-67
2022/08/17 03:33:56;;;;;;;;;;;23.20;69.70;;;;;;6095837;23;824;-66
2022/08/17 03:36:21;;;;;;;;;;;23.20;69.70;;;;;;6096732;23;899;-66
2022/08/17 03:38:47;;;;;;;;;;;23.20;69.70;;;;;;6097284;23;798;-66
2022/08/17 03:41:12;;;;;;;;;;;23.20;69.70;;;;;;6071782;23;1885;-67
2022/08/17 03:43:38;;;;;;;;;;;23.20;69.70;;;;;;6096737;23;856;-67
2022/08/17 03:57:00;;;;;;;;;;;23.20;69.70;;;;;;6125613;23;670;-65
2022/08/17 03:59:25;;;;;;;;;;;23.20;69.70;;;;;;6126777;23;812;-66
2022/08/17 04:01:52;;;;;;;;;;;23.20;69.80;;;;;;6095332;23;1905;-65
2022/08/17 04:04:17;;;;;;;;;;;23.20;69.70;;;;;;6097788;23;840;-65
2022/08/17 04:06:43;;;;;;;;;;;23.20;69.80;;;;;;6095430;23;820;-67
2022/08/17 04:09:08;;;;;;;;;;;23.20;69.70;;;;;;6097534;23;904;-64
2022/08/17 04:11:34;;;;;;;;;;;23.20;69.70;;;;;;6094946;23;1232;-66
2022/08/17 04:14:00;;;;;;;;;;;23.20;69.80;;;;;;6095605;23;1054;-66
2022/08/17 04:16:25;;;;;;;;;;;23.20;69.80;;;;;;6096418;23;844;-66
2022/08/17 04:18:51;;;;;;;;;;;23.20;69.70;;;;;;6097221;23;923;-65
2022/08/17 04:21:17;;;;;;;;;;;23.20;69.70;;;;;;6096973;23;1935;-65
2022/08/17 04:23:42;;;;;;;;;;;23.20;69.80;;;;;;6097149;23;777;-65
2022/08/17 04:26:08;;;;;;;;;;;23.20;69.80;;;;;;6096342;23;931;-64
2022/08/17 04:28:33;;;;;;;;;;;23.20;69.80;;;;;;6096854;23;875;-66
2022/08/17 04:30:59;;;;;;;;;;;23.20;69.80;;;;;;6095487;23;1226;-67
2022/08/17 04:33:25;;;;;;;;;;;23.20;69.80;;;;;;6096971;23;741;-64
2022/08/17 04:35:51;;;;;;;;;;;23.20;69.80;;;;;;6096389;23;995;-67
2022/08/17 04:38:17;;;;;;;;;;;23.20;69.80;;;;;;6096703;23;947;-67
2022/08/17 04:43:27;;;;;;;;;;;23.20;69.80;;;;;;6094894;23;671;-65
2022/08/17 04:45:53;;;;;;;;;;;23.20;69.80;;;;;;6094681;23;828;-67
2022/08/17 04:48:19;;;;;;;;;;;23.20;69.80;;;;;;6095556;23;999;-67
2022/08/17 04:50:45;;;;;;;;;;;23.20;69.80;;;;;;6096655;23;1149;-67
2022/08/17 04:53:11;;;;;;;;;;;23.20;69.80;;;;;;6096539;23;778;-67
2022/08/17 04:55:37;;;;;;;;;;;23.20;69.80;;;;;;6087459;23;935;-67
2022/08/17 04:58:02;;;;;;;;;;;23.20;69.80;;;;;;6090268;23;1034;-66
2022/08/17 05:00:28;;;;;;;;;;;23.20;69.80;;;;;;6094595;23;1931;-66
2022/08/17 05:02:53;;;;;;;;;;;23.20;69.80;;;;;;6096858;23;702;-66
2022/08/17 05:05:26;;;;;;;;;;;23.20;69.80;;;;;;6095483;23;781;-67
2022/08/17 05:07:55;;;;;;;;;;;23.20;69.80;;;;;;6094979;23;1214;-66
2022/08/17 05:10:20;;;;;;;;;;;23.20;69.80;;;;;;6096466;23;1231;-66
2022/08/17 05:12:46;;;;;;;;;;;23.20;69.80;;;;;;6096696;23;871;-65
2022/08/17 05:15:14;;;;;;;;;;;23.20;69.80;;;;;;6096458;23;1039;-65
2022/08/17 05:17:43;;;;;;;;;;;23.20;69.80;;;;;;6096131;23;796;-65
2022/08/17 05:20:11;;;;;;;;;;;23.20;69.80;;;;;;6096472;23;1243;-66
2022/08/17 05:22:45;;;;;;;;;;;23.20;69.80;;;;;;6098177;23;1936;-65
2022/08/17 05:25:10;;;;;;;;;;;23.20;69.80;;;;;;6097256;23;1003;-64
2022/08/17 05:27:36;;;;;;;;;;;23.20;69.80;;;;;;6070188;23;864;-65
2022/08/17 05:30:02;;;;;;;;;;;23.20;69.80;;;;;;6096421;23;822;-65
2022/08/17 05:32:27;;;;;;;;;;;23.20;69.90;;;;;;6096402;23;1204;-64
2022/08/17 05:34:54;;;;;;;;;;;23.20;69.80;;;;;;6070416;23;844;-65
2022/08/17 05:37:20;;;;;;;;;;;23.20;69.80;;;;;;6095586;23;896;-65
2022/08/17 05:39:45;;;;;;;;;;;23.20;69.90;;;;;;6096389;23;912;-64
2022/08/17 05:42:10;;;;;;;;;;;23.20;69.90;;;;;;6096072;23;1933;-66
2022/08/17 05:44:36;;;;;;;;;;;23.20;69.80;;;;;;6096254;23;1006;-65
2022/08/17 05:47:01;;;;;;;;;;;23.20;69.80;;;;;;6095593;23;1042;-65
2022/08/17 05:49:27;;;;;;;;;;;23.20;69.80;;;;;;6094293;23;895;-67
2022/08/17 05:52:02;;;;;;;;;;;23.20;69.90;;;;;;6094694;23;1209;-65
2022/08/17 05:54:30;;;;;;;;;;;23.20;69.90;;;;;;6094904;23;903;-66
2022/08/17 05:57:14;;;;;;;;;;;23.20;69.90;;;;;;6094429;23;906;-66
2022/08/17 05:59:58;;;;;;;;;;;23.20;69.80;;;;;;6070324;23;1162;-66
2022/08/17 06:02:30;;;;;;;;;;;23.20;69.90;;;;;;6095951;23;1902;-65
2022/08/17 06:05:01;;;;;;;;;;;23.20;69.90;;;;;;6095568;23;768;-66
2022/08/17 06:07:36;;;;;;;;;;;23.20;69.90;;;;;;6069716;23;1974;-65
2022/08/17 06:10:07;;;;;;;;;;;23.20;69.80;;;;;;6098691;23;889;-67
2022/08/17 06:12:36;;;;;;;;;;;23.20;69.90;;;;;;6097669;23;847;-64
2022/08/17 06:15:01;;;;;;;;;;;23.20;69.90;;;;;;6098251;23;801;-65
2022/08/17 06:17:26;;;;;;;;;;;23.20;69.90;;;;;;6098954;23;812;-66
2022/08/17 06:19:57;;;;;;;;;;;23.20;69.80;;;;;;6098047;23;1050;-67
2022/08/17 06:22:24;;;;;;;;;;;23.20;69.90;;;;;;6097907;23;1893;-68
2022/08/17 06:24:52;;;;;;;;;;;23.10;69.80;;;;;;6097312;23;1066;-68
2022/08/17 06:27:21;;;;;;;;;;;23.20;69.80;;;;;;6098695;23;838;-65
2022/08/17 06:29:46;;;;;;;;;;;23.20;69.90;;;;;;6099611;23;936;-65
2022/08/17 06:32:13;;;;;;;;;;;23.20;69.80;;;;;;6099073;23;1168;-64
2022/08/17 06:34:38;;;;;;;;;;;23.20;69.90;;;;;;6099435;23;820;-66
2022/08/17 06:37:09;;;;;;;;;;;23.20;69.80;;;;;;6099075;23;1081;-66
2022/08/17 06:39:37;;;;;;;;;;;23.20;69.90;;;;;;6074268;23;1314;-67
2022/08/17 06:42:02;;;;;;;;;;;23.20;69.90;;;;;;6099282;23;1893;-67
2022/08/17 06:44:30;;;;;;;;;;;23.20;69.90;;;;;;6099460;23;770;-67
2022/08/17 06:47:03;;;;;;;;;;;23.20;69.90;;;;;;6096830;23;786;-67
2022/08/17 06:49:32;;;;;;;;;;;23.20;69.90;;;;;;6099543;23;801;-67
2022/08/17 06:52:16;;;;;;;;;;;23.20;69.90;;;;;;6099128;23;1247;-67
2022/08/17 06:54:44;;;;;;;;;;;23.20;69.90;;;;;;6099181;23;920;-67
2022/08/17 06:57:24;;;;;;;;;;;23.20;69.90;;;;;;6097223;23;789;-67
2022/08/17 06:59:55;;;;;;;;;;;23.20;69.90;;;;;;6097871;23;771;-65
2022/08/17 07:02:41;;;;;;;;;;;23.20;69.90;;;;;;6099173;23;1939;-64
2022/08/17 07:05:06;;;;;;;;;;;23.20;69.90;;;;;;6099435;23;801;-64
2022/08/17 07:10:16;;;;;;;;;;;23.20;69.90;;;;;;6098189;23;1665;-65
2022/08/17 07:12:42;;;;;;;;;;;23.20;69.90;;;;;;6097264;23;1270;-65
2022/08/17 07:15:11;;;;;;;;;;;23.20;70.70;;;;;;6096171;23;828;-66
2022/08/17 07:17:37;;;;;;;;;;;23.20;69.90;;;;;;6096445;23;840;-66
2022/08/17 07:20:05;;;;;;;;;;;23.10;69.80;;;;;;6097106;23;1019;-67
2022/08/17 07:22:40;;;;;;;;;;;23.20;69.90;;;;;;6095339;23;1890;-67
2022/08/17 07:25:07;;;;;;;;;;;23.20;69.90;;;;;;6096779;23;871;-66
2022/08/17 07:27:36;;;;;;;;;;;23.20;69.80;;;;;;6095971;23;872;-66
2022/08/17 07:30:22;;;;;;;;;;;23.20;69.90;;;;;;6095201;23;697;-67
2022/08/17 07:32:49;;;;;;;;;;;23.20;69.90;;;;;;6096498;23;1455;-66
2022/08/17 07:35:20;;;;;;;;;;;23.20;69.90;;;;;;6095784;23;828;-68
2022/08/17 07:37:54;;;;;;;;;;;23.20;69.80;;;;;;6097275;23;855;-66
2022/08/17 07:40:19;;;;;;;;;;;23.20;69.80;;;;;;6095880;23;1204;-67
2022/08/17 07:43:01;;;;;;;;;;;23.20;69.90;;;;;;6097164;23;1885;-67
2022/08/17 07:48:18;;;;;;;;;;;23.10;69.80;;;;;;6095916;23;599;-66
2022/08/17 07:50:43;;;;;;;;;;;23.20;69.80;;;;;;6095722;23;1235;-67
2022/08/17 07:53:16;;;;;;;;;;;23.20;69.90;;;;;;6096987;23;923;-65
2022/08/17 07:55:41;;;;;;;;;;;23.20;69.90;;;;;;6097202;23;824;-66
2022/08/17 07:58:08;;;;;;;;;;;23.20;69.90;;;;;;6097463;23;801;-66
2022/08/17 08:00:33;;;;;;;;;;;23.20;69.80;;;;;;6096789;23;1941;-66
2022/08/17 08:03:03;;;;;;;;;;;23.20;69.90;;;;;;6096677;23;757;-64
2022/08/17 08:05:29;;;;;;;;;;;23.20;69.80;;;;;;6096519;23;934;-66
2022/08/17 08:07:55;;;;;;;;;;;23.20;69.80;;;;;;6097129;23;896;-65
2022/08/17 08:10:31;;;;;;;;;;;23.20;69.80;;;;;;6095622;23;1239;-66
2022/08/17 08:13:19;;;;;;;;;;;23.20;69.90;;;;;;6097075;23;860;-64
2022/08/17 08:15:49;;;;;;;;;;;23.20;69.80;;;;;;6084565;23;1346;-64
2022/08/17 08:18:19;;;;;;;;;;;23.20;69.80;;;;;;6095770;23;1034;-64
2022/08/17 08:20:48;;;;;;;;;;;23.20;69.80;;;;;;6094823;23;1932;-64
2022/08/17 08:23:19;;;;;;;;;;;23.20;69.80;;;;;;6096424;23;859;-65
2022/08/17 08:25:55;;;;;;;;;;;23.20;69.80;;;;;;6094819;23;797;-63
2022/08/17 08:28:20;;;;;;;;;;;23.20;69.80;;;;;;6095746;23;768;-63
2022/08/17 08:30:47;;;;;;;;;;;23.20;69.80;;;;;;6097007;23;1218;-65
2022/08/17 08:33:21;;;;;;;;;;;23.20;69.90;;;;;;6094832;23;824;-65
2022/08/17 08:35:53;;;;;;;;;;;23.20;69.80;;;;;;6093453;23;1019;-65
2022/08/17 08:38:37;;;;;;;;;;;23.20;69.80;;;;;;6094128;23;845;-64
2022/08/17 08:41:03;;;;;;;;;;;23.20;70.20;;;;;;6095774;23;1877;-64
2022/08/17 08:43:33;;;;;;;;;;;23.20;70.30;;;;;;6095648;23;842;-63
2022/08/17 08:46:15;;;;;;;;;;;23.20;70.30;;;;;;6094746;23;824;-64
2022/08/17 08:48:41;;;;;;;;;;;23.20;70.30;;;;;;6094721;23;842;-63
2022/08/17 08:51:09;;;;;;;;;;;23.20;70.20;;;;;;6096403;23;1235;-64
2022/08/17 08:53:35;;;;;;;;;;;23.20;70.30;;;;;;6071166;23;987;-64
2022/08/17 08:56:05;;;;;;;;;;;23.20;70.30;;;;;;6096298;23;918;-63
2022/08/17 08:59:04;;;;;;;;;;;23.20;70.30;;;;;;6082838;23;884;-65
2022/08/17 09:01:35;;;;;;;;;;;23.30;70.30;;;;;;6046725;23;1938;-63
2022/08/17 09:04:04;;;;;;;;;;;23.20;70.20;;;;;;6093303;23;838;-66
2022/08/17 09:06:43;;;;;;;;;;;23.20;70.20;;;;;;6094921;23;652;-66
2022/08/17 09:09:21;;;;;;;;;;;23.20;70.20;;;;;;6093892;23;864;-64
2022/08/17 09:11:48;;;;;;;;;;;23.20;70.20;;;;;;6096020;23;1208;-65
2022/08/17 09:14:18;;;;;;;;;;;23.20;70.20;;;;;;6093097;23;821;-66
2022/08/17 09:16:45;;;;;;;;;;;23.20;70.20;;;;;;6093392;23;813;-65
2022/08/17 09:19:14;;;;;;;;;;;23.20;70.20;;;;;;6093662;23;816;-65
2022/08/17 09:21:43;;;;;;;;;;;23.20;70.20;;;;;;6094820;23;1932;-65
2022/08/17 09:24:11;;;;;;;;;;;23.20;70.30;;;;;;6095017;23;944;-65
2022/08/17 09:26:45;;;;;;;;;;;23.30;70.30;;;;;;6093216;23;1200;-66
2022/08/17 09:29:11;;;;;;;;;;;23.20;70.20;;;;;;6093612;23;805;-66
2022/08/17 09:31:38;;;;;;;;;;;23.20;70.20;;;;;;6093827;23;1235;-65
2022/08/17 09:34:07;;;;;;;;;;;23.30;70.30;;;;;;6093240;23;829;-66
2022/08/17 09:36:34;;;;;;;;;;;23.20;70.20;;;;;;6093083;23;810;-65
2022/08/17 09:39:01;;;;;;;;;;;23.20;70.20;;;;;;6093577;23;825;-65
2022/08/17 09:41:46;;;;;;;;;;;23.20;70.20;;;;;;6094613;23;1893;-65
2022/08/17 09:44:19;;;;;;;;;;;23.20;70.20;;;;;;6094572;23;769;-66
2022/08/17 09:46:46;;;;;;;;;;;23.20;70.20;;;;;;6069950;23;896;-67
2022/08/17 09:49:15;;;;;;;;;;;23.20;70.20;;;;;;6095854;23;823;-66
2022/08/17 09:51:42;;;;;;;;;;;23.20;70.20;;;;;;6109961;23;1998;-66
2022/08/17 09:54:18;;;;;;;;;;;23.20;70.30;;;;;;6075655;23;1197;-66
2022/08/17 09:56:53;;;;;;;;;;;23.20;70.30;;;;;;6125688;23;800;-66
2022/08/17 09:59:21;;;;;;;;;;;23.30;70.30;;;;;;6075050;23;1142;-66
2022/08/17 10:02:05;;;;;;;;;;;23.20;70.30;;;;;;6104665;23;2213;-65
2022/08/17 10:04:34;;;;;;;;;;;23.20;70.30;;;;;;6070328;23;1287;-67
2022/08/17 10:07:03;;;;;;;;;;;23.30;70.30;;;;;;6093652;23;828;-66
2022/08/17 10:09:31;;;;;;;;;;;23.20;70.30;;;;;;6093479;23;821;-66
2022/08/17 10:12:16;;;;;;;;;;;23.20;70.30;;;;;;6094362;23;1305;-66
2022/08/17 10:14:51;;;;;;;;;;;23.30;70.40;;;;;;6092572;23;836;-66
2022/08/17 10:17:16;;;;;;;;;;;23.30;70.40;;;;;;6093348;23;829;-66
2022/08/17 10:19:44;;;;;;;;;;;23.30;70.30;;;;;;6096288;23;836;-66
2022/08/17 10:27:52;;;;;;;;;;;23.20;70.30;;;;;;6094187;23;728;-66
2022/08/17 10:30:19;;;;;;;;;;;23.30;70.40;;;;;;6094401;23;1171;-66
2022/08/17 10:32:44;;;;;;;;;;;23.20;70.30;;;;;;6093664;23;919;-65
2022/08/17 10:35:13;;;;;;;;;;;23.20;70.30;;;;;;6095836;23;810;-66
2022/08/17 10:37:48;;;;;;;;;;;23.20;70.30;;;;;;6069859;23;1358;-66
2022/08/17 10:40:32;;;;;;;;;;;23.20;70.30;;;;;;6095902;23;1303;-65
2022/08/17 10:43:17;;;;;;;;;;;23.20;70.30;;;;;;6096441;23;1944;-66
2022/08/17 10:45:54;;;;;;;;;;;23.30;70.40;;;;;;6095324;23;856;-66
2022/08/17 10:48:23;;;;;;;;;;;23.20;70.30;;;;;;6095996;23;876;-66
2022/08/17 10:50:55;;;;;;;;;;;23.20;70.30;;;;;;6094362;23;1239;-66
2022/08/17 10:53:37;;;;;;;;;;;23.20;70.30;;;;;;6095720;23;924;-65
2022/08/17 10:56:12;;;;;;;;;;;23.30;70.50;;;;;;6096921;23;813;-67
2022/08/17 10:58:54;;;;;;;;;;;23.30;70.70;;;;;;6097917;23;817;-66
2022/08/17 11:01:31;;;;;;;;;;;23.30;70.80;;;;;;6096760;23;1893;-66
2022/08/17 11:04:08;;;;;;;;;;;23.30;70.90;;;;;;6096991;23;900;-66
2022/08/17 11:06:36;;;;;;;;;;;23.30;70.90;;;;;;6095076;23;789;-67
2022/08/17 11:09:11;;;;;;;;;;;23.30;70.80;;;;;;6096672;23;1035;-66
2022/08/17 11:11:44;;;;;;;;;;;23.30;70.70;;;;;;6094286;23;1212;-67
2022/08/17 11:14:16;;;;;;;;;;;23.30;71.20;;;;;;6096022;23;871;-66
2022/08/17 11:16:57;;;;;;;;;;;23.30;71.20;;;;;;6095414;23;828;-67
2022/08/17 11:19:33;;;;;;;;;;;23.30;71.00;;;;;;6094831;23;845;-67
2022/08/17 11:21:58;;;;;;;;;;;23.30;71.10;;;;;;6095410;23;1885;-66
2022/08/17 11:24:30;;;;;;;;;;;23.30;71.30;;;;;;6097376;23;778;-65
2022/08/17 11:27:01;;;;;;;;;;;23.30;71.30;;;;;;6090773;23;871;-66
2022/08/17 11:29:32;;;;;;;;;;;23.30;72.20;;;;;;6067702;23;1221;-67
2022/08/17 11:31:58;;;;;;;;;;;23.30;71.20;;;;;;6094182;23;1305;-67
2022/08/17 11:34:26;;;;;;;;;;;23.30;71.30;;;;;;6096212;23;843;-67
2022/08/17 11:36:55;;;;;;;;;;;23.30;71.20;;;;;;6096300;23;1034;-66
2022/08/17 11:39:20;;;;;;;;;;;23.30;71.30;;;;;;6095316;23;979;-67
2022/08/17 11:41:48;;;;;;;;;;;23.30;71.30;;;;;;6095793;23;1925;-67
2022/08/17 11:44:16;;;;;;;;;;;23.30;71.20;;;;;;6095838;23;821;-66
2022/08/17 11:52:48;;;;;;;;;;;23.30;71.20;;;;;;6096790;23;630;-66
2022/08/17 11:55:33;;;;;;;;;;;23.30;71.30;;;;;;6095645;23;879;-66
2022/08/17 11:58:24;;;;;;;;;;;23.30;71.40;;;;;;6097037;23;841;-66
2022/08/17 12:00:53;;;;;;;;;;;23.30;71.30;;;;;;6097029;23;1896;-66
2022/08/17 12:03:23;;;;;;;;;;;23.30;71.30;;;;;;6096887;23;1186;-66
2022/08/17 12:05:49;;;;;;;;;;;23.30;71.40;;;;;;6097327;23;734;-66
2022/08/17 12:08:17;;;;;;;;;;;23.30;71.50;;;;;;6096652;23;931;-66
2022/08/17 12:10:48;;;;;;;;;;;23.30;71.60;;;;;;6071593;23;1344;-66
2022/08/17 12:13:14;;;;;;;;;;;23.30;71.70;;;;;;6071244;23;1227;-66
2022/08/17 12:15:47;;;;;;;;;;;23.30;71.70;;;;;;6096807;23;1003;-66
2022/08/17 12:18:23;;;;;;;;;;;23.30;71.80;;;;;;6070789;23;1164;-66
2022/08/17 12:20:59;;;;;;;;;;;23.40;72.00;;;;;;6071206;23;1947;-66
2022/08/17 12:23:26;;;;;;;;;;;23.30;72.10;;;;;;6095361;23;809;-66
2022/08/17 12:25:54;;;;;;;;;;;23.30;72.10;;;;;;6095031;23;1042;-67
2022/08/17 12:28:23;;;;;;;;;;;23.40;72.00;;;;;;6071111;23;1070;-66
2022/08/17 12:30:49;;;;;;;;;;;23.30;72.10;;;;;;6095767;23;1194;-67
2022/08/17 12:33:14;;;;;;;;;;;23.30;72.20;;;;;;6095077;23;793;-67
2022/08/17 12:35:40;;;;;;;;;;;23.40;72.20;;;;;;6070608;23;1198;-67
2022/08/17 12:38:09;;;;;;;;;;;23.30;72.20;;;;;;6095225;23;809;-67
2022/08/17 12:40:34;;;;;;;;;;;23.40;72.20;;;;;;6095293;23;1204;-67
2022/08/17 12:43:01;;;;;;;;;;;23.40;72.30;;;;;;6096149;23;1925;-66
2022/08/17 12:45:28;;;;;;;;;;;23.40;72.30;;;;;;6095269;23;773;-67
2022/08/17 12:48:07;;;;;;;;;;;23.40;72.30;;;;;;6094459;23;863;-67
2022/08/17 12:50:37;;;;;;;;;;;23.40;72.30;;;;;;6094977;23;1190;-67
2022/08/17 12:53:02;;;;;;;;;;;23.40;72.10;;;;;;6095092;23;824;-67
2022/08/17 12:55:28;;;;;;;;;;;23.40;72.00;;;;;;6094654;23;840;-67
2022/08/17 12:57:54;;;;;;;;;;;23.40;71.80;;;;;;6096555;23;840;-67
2022/08/17 13:00:26;;;;;;;;;;;23.40;71.70;;;;;;6071071;23;1282;-67
2022/08/17 13:02:57;;;;;;;;;;;23.40;71.60;;;;;;6095819;23;1898;-67
2022/08/17 13:05:23;;;;;;;;;;;23.40;71.50;;;;;;6096232;23;841;-67
2022/08/17 13:07:49;;;;;;;;;;;23.40;71.50;;;;;;6094578;23;785;-67
2022/08/17 13:10:22;;;;;;;;;;;23.40;71.40;;;;;;6095921;23;1273;-67
2022/08/17 13:12:49;;;;;;;;;;;23.40;71.30;;;;;;6096638;23;781;-67
2022/08/17 13:15:23;;;;;;;;;;;23.40;71.30;;;;;;6096312;23;876;-67
2022/08/17 13:18:00;;;;;;;;;;;23.40;71.20;;;;;;6094142;23;1022;-67
2022/08/17 13:20:25;;;;;;;;;;;23.40;71.30;;;;;;6094157;23;1325;-68
2022/08/17 13:22:52;;;;;;;;;;;23.40;71.20;;;;;;6095130;23;1893;-67
2022/08/17 13:25:17;;;;;;;;;;;23.40;71.20;;;;;;6095117;23;861;-67
2022/08/17 13:27:43;;;;;;;;;;;23.40;71.20;;;;;;6095761;23;877;-66
2022/08/17 13:30:10;;;;;;;;;;;23.40;71.20;;;;;;6096033;23;893;-68
2022/08/17 13:32:40;;;;;;;;;;;23.40;71.10;;;;;;6096066;23;876;-67
2022/08/17 13:35:24;;;;;;;;;;;23.30;71.00;;;;;;6096163;23;833;-67
2022/08/17 13:38:00;;;;;;;;;;;23.30;71.00;;;;;;6096139;23;930;-67
2022/08/17 13:40:27;;;;;;;;;;;23.30;71.00;;;;;;6095944;23;1156;-67
2022/08/17 13:42:54;;;;;;;;;;;23.30;71.20;;;;;;6094267;23;1889;-69
2022/08/17 13:45:28;;;;;;;;;;;23.30;70.90;;;;;;6095695;23;801;-66
2022/08/17 13:48:06;;;;;;;;;;;23.30;71.00;;;;;;6095513;23;876;-67
2022/08/17 13:50:32;;;;;;;;;;;23.30;71.00;;;;;;6095150;23;1286;-68
2022/08/17 13:52:57;;;;;;;;;;;23.30;71.00;;;;;;6094051;23;852;-68
2022/08/17 13:55:23;;;;;;;;;;;23.30;70.90;;;;;;6093323;23;892;-66
2022/08/17 13:57:49;;;;;;;;;;;23.30;70.90;;;;;;6093772;23;1031;-68
2022/08/17 14:00:16;;;;;;;;;;;23.30;71.00;;;;;;6093853;23;1217;-67
2022/08/17 14:02:42;;;;;;;;;;;23.40;70.90;;;;;;6093451;23;1893;-68
2022/08/17 14:05:07;;;;;;;;;;;23.30;71.00;;;;;;6095371;23;828;-69
2022/08/17 14:07:34;;;;;;;;;;;23.30;71.00;;;;;;6094695;23;777;-66
2022/08/17 14:10:01;;;;;;;;;;;23.30;71.00;;;;;;6093987;23;1045;-66
2022/08/17 14:12:27;;;;;;;;;;;23.40;71.00;;;;;;6069342;23;1296;-66
2022/08/17 14:14:53;;;;;;;;;;;23.30;70.90;;;;;;6095154;23;1023;-68
2022/08/17 14:17:19;;;;;;;;;;;23.30;71.00;;;;;;6092776;23;857;-68
2022/08/17 14:19:45;;;;;;;;;;;23.30;71.00;;;;;;6068989;23;1338;-67
2022/08/17 14:22:13;;;;;;;;;;;23.30;71.00;;;;;;6094933;23;1924;-68
2022/08/17 14:24:42;;;;;;;;;;;23.30;71.00;;;;;;6094216;23;832;-67
2022/08/17 14:27:07;;;;;;;;;;;23.30;71.00;;;;;;6095313;23;928;-67
2022/08/17 14:29:33;;;;;;;;;;;23.30;71.00;;;;;;6094565;23;840;-67
2022/08/17 14:32:01;;;;;;;;;;;23.30;71.20;;;;;;6096181;23;1234;-67
2022/08/17 14:34:27;;;;;;;;;;;23.30;71.50;;;;;;6097160;23;816;-67
2022/08/17 14:36:52;;;;;;;;;;;23.30;71.60;;;;;;6097873;23;868;-67
2022/08/17 14:39:18;;;;;;;;;;;23.30;71.50;;;;;;6096285;23;975;-67
2022/08/17 14:41:43;;;;;;;;;;;23.30;71.40;;;;;;6097888;23;1881;-66
2022/08/17 14:44:11;;;;;;;;;;;23.30;71.40;;;;;;6096343;23;769;-66
2022/08/17 14:46:39;;;;;;;;;;;23.40;71.40;;;;;;6094624;23;832;-66
2022/08/17 14:49:04;;;;;;;;;;;23.40;71.40;;;;;;6096104;23;829;-66
2022/08/17 14:51:30;;;;;;;;;;;23.40;71.40;;;;;;6095875;23;1283;-66
2022/08/17 14:53:56;;;;;;;;;;;23.40;71.50;;;;;;6095779;23;827;-66
2022/08/17 14:56:21;;;;;;;;;;;23.40;71.50;;;;;;6094512;23;849;-65
2022/08/17 14:58:47;;;;;;;;;;;23.40;71.60;;;;;;6093444;23;1014;-65
2022/08/17 15:01:12;;;;;;;;;;;23.40;71.60;;;;;;6068612;23;1928;-65
2022/08/17 15:03:39;;;;;;;;;;;23.40;71.60;;;;;;6094774;23;872;-66
2022/08/17 15:06:05;;;;;;;;;;;23.40;71.60;;;;;;6094308;23;849;-66
2022/08/17 15:08:30;;;;;;;;;;;23.40;71.60;;;;;;6093054;23;811;-65
2022/08/17 15:10:56;;;;;;;;;;;23.40;71.60;;;;;;6094500;23;1280;-65
2022/08/17 15:13:23;;;;;;;;;;;23.40;71.60;;;;;;6094235;23;766;-67
2022/08/17 15:15:49;;;;;;;;;;;23.40;71.60;;;;;;6092361;23;1054;-67
2022/08/17 15:18:14;;;;;;;;;;;23.40;71.50;;;;;;6094422;23;789;-67